sensor_id;sensor_type;location;lat;lon;timestamp;pressure;altitude;pressure_sealevel;temperature;humidity
78623;BME280;67943;54.412;9.502;2023-04-03T00:04:54;103301.25;;;0.31;65.43
78623;BME280;67943;54.412;9.502;2023-04-03T00:09:57;103287.19;;;0.26;65.71
78623;BME280;67943;54.412;9.502;2023-04-03T00:14:59;103307.00;;;0.25;65.71
78623;BME280;67943;54.412;9.502;2023-04-03T00:20:01;103295.47;;;0.20;65.97
78623;BME280;67943;54.412;9.502;2023-04-03T00:25:04;103289.38;;;0.20;65.69
78623;BME280;67943;54.412;9.502;2023-04-03T00:30:08;103295.97;;;0.15;65.78
78623;BME280;67943;54.412;9.502;2023-04-03T00:35:09;103292.03;;;0.07;65.83
78623;BME280;67943;54.412;9.502;2023-04-03T00:40:14;103297.09;;;0.05;66.31
78623;BME280;67943;54.412;9.502;2023-04-03T00:45:29;103306.31;;;0.00;65.81
78623;BME280;67943;54.412;9.502;2023-04-03T00:50:34;103302.16;;;-0.11;65.86
78623;BME280;67943;54.412;9.502;2023-04-03T00:55:38;103306.03;;;-0.18;66.57
78623;BME280;67943;54.412;9.502;2023-04-03T01:00:43;103311.94;;;-0.20;66.50
78623;BME280;67943;54.412;9.502;2023-04-03T01:05:48;103305.47;;;-0.27;66.99
78623;BME280;67943;54.412;9.502;2023-04-03T01:10:51;103309.50;;;-0.32;67.63
78623;BME280;67943;54.412;9.502;2023-04-03T01:15:53;103298.16;;;-0.34;67.36
78623;BME280;67943;54.412;9.502;2023-04-03T01:21:14;103293.47;;;-0.40;67.43
78623;BME280;67943;54.412;9.502;2023-04-03T01:26:19;103293.09;;;-0.46;67.45
78623;BME280;67943;54.412;9.502;2023-04-03T01:31:25;103280.56;;;-0.53;67.55
78623;BME280;67943;54.412;9.502;2023-04-03T01:36:30;103296.06;;;-0.53;67.55
78623;BME280;67943;54.412;9.502;2023-04-03T01:41:32;103290.59;;;-0.44;67.75
78623;BME280;67943;54.412;9.502;2023-04-03T01:46:33;103292.38;;;-0.43;67.56
78623;BME280;67943;54.412;9.502;2023-04-03T01:51:37;103297.34;;;-0.46;66.80
78623;BME280;67943;54.412;9.502;2023-04-03T01:56:38;103303.72;;;-0.54;66.74
78623;BME280;67943;54.412;9.502;2023-04-03T02:01:40;103299.69;;;-0.64;67.18
78623;BME280;67943;54.412;9.502;2023-04-03T02:06:43;103298.78;;;-0.64;67.28
78623;BME280;67943;54.412;9.502;2023-04-03T02:11:44;103300.97;;;-0.71;66.88
78623;BME280;67943;54.412;9.502;2023-04-03T02:16:45;103306.25;;;-0.82;67.09
78623;BME280;67943;54.412;9.502;2023-04-03T02:21:48;103304.09;;;-0.89;67.35
78623;BME280;67943;54.412;9.502;2023-04-03T02:26:50;103313.13;;;-0.96;67.88
78623;BME280;67943;54.412;9.502;2023-04-03T02:31:51;103309.16;;;-0.91;68.94
78623;BME280;67943;54.412;9.502;2023-04-03T02:36:54;103323.44;;;-0.83;67.91
78623;BME280;67943;54.412;9.502;2023-04-03T02:41:55;103316.47;;;-0.84;68.09
78623;BME280;67943;54.412;9.502;2023-04-03T02:46:57;103315.47;;;-0.86;68.46
78623;BME280;67943;54.412;9.502;2023-04-03T02:52:00;103311.31;;;-0.84;69.03
78623;BME280;67943;54.412;9.502;2023-04-03T02:57:01;103303.56;;;-0.84;68.05
78623;BME280;67943;54.412;9.502;2023-04-03T03:02:03;103310.03;;;-0.90;68.27
78623;BME280;67943;54.412;9.502;2023-04-03T03:07:06;103305.47;;;-0.94;68.64
78623;BME280;67943;54.412;9.502;2023-04-03T03:12:07;103310.72;;;-1.06;68.16
78623;BME280;67943;54.412;9.502;2023-04-03T03:17:09;103314.19;;;-1.19;68.56
78623;BME280;67943;54.412;9.502;2023-04-03T03:22:12;103316.38;;;-1.25;69.66
78623;BME280;67943;54.412;9.502;2023-04-03T03:27:13;103314.06;;;-1.33;69.19
78623;BME280;67943;54.412;9.502;2023-04-03T03:32:16;103317.00;;;-1.41;69.23
78623;BME280;67943;54.412;9.502;2023-04-03T03:37:19;103315.31;;;-1.40;68.84
78623;BME280;67943;54.412;9.502;2023-04-03T03:42:20;103311.47;;;-1.47;68.85
78623;BME280;67943;54.412;9.502;2023-04-03T03:47:22;103319.78;;;-1.51;68.55
78623;BME280;67943;54.412;9.502;2023-04-03T03:52:25;103315.56;;;-1.62;68.96
78623;BME280;67943;54.412;9.502;2023-04-03T03:57:27;103314.94;;;-1.71;69.25
78623;BME280;67943;54.412;9.502;2023-04-03T04:02:29;103323.47;;;-1.72;69.82
78623;BME280;67943;54.412;9.502;2023-04-03T04:07:31;103316.44;;;-1.75;69.08
78623;BME280;67943;54.412;9.502;2023-04-03T04:12:33;103330.59;;;-1.81;69.41
78623;BME280;67943;54.412;9.502;2023-04-03T04:17:35;103326.91;;;-1.85;69.56
78623;BME280;67943;54.412;9.502;2023-04-03T04:22:38;103330.38;;;-1.84;69.28
78623;BME280;67943;54.412;9.502;2023-04-03T04:27:40;103333.91;;;-1.95;69.36
78623;BME280;67943;54.412;9.502;2023-04-03T04:32:41;103335.25;;;-2.00;69.74
78623;BME280;67943;54.412;9.502;2023-04-03T04:37:44;103335.47;;;-1.97;70.03
78623;BME280;67943;54.412;9.502;2023-04-03T04:42:45;103344.22;;;-1.95;69.59
78623;BME280;67943;54.412;9.502;2023-04-03T04:47:47;103348.38;;;-1.97;69.88
78623;BME280;67943;54.412;9.502;2023-04-03T04:52:53;103352.13;;;-2.06;69.52
78623;BME280;67943;54.412;9.502;2023-04-03T04:57:54;103360.66;;;-2.07;70.37
78623;BME280;67943;54.412;9.502;2023-04-03T05:02:56;103361.84;;;-2.01;69.63
78623;BME280;67943;54.412;9.502;2023-04-03T05:07:58;103356.28;;;-2.08;69.41
78623;BME280;67943;54.412;9.502;2023-04-03T05:13:00;103365.59;;;-2.10;69.59
78623;BME280;67943;54.412;9.502;2023-04-03T05:18:01;103372.53;;;-2.09;70.17
78623;BME280;67943;54.412;9.502;2023-04-03T05:23:04;103364.91;;;-2.07;70.05
78623;BME280;67943;54.412;9.502;2023-04-03T05:28:06;103381.00;;;-1.98;70.33
78623;BME280;67943;54.412;9.502;2023-04-03T05:33:08;103367.09;;;-1.88;70.86
78623;BME280;67943;54.412;9.502;2023-04-03T05:38:11;103381.38;;;-1.68;71.10
78623;BME280;67943;54.412;9.502;2023-04-03T05:43:13;103386.13;;;-1.50;71.70
78623;BME280;67943;54.412;9.502;2023-04-03T05:48:15;103385.00;;;-1.28;72.06
78623;BME280;67943;54.412;9.502;2023-04-03T05:53:21;103389.81;;;-1.08;71.82
78623;BME280;67943;54.412;9.502;2023-04-03T05:58:23;103390.28;;;-0.89;72.22
78623;BME280;67943;54.412;9.502;2023-04-03T06:03:25;103397.63;;;-0.69;72.04
78623;BME280;67943;54.412;9.502;2023-04-03T06:08:28;103390.47;;;-0.46;72.19
78623;BME280;67943;54.412;9.502;2023-04-03T06:13:29;103402.59;;;-0.19;73.05
78623;BME280;67943;54.412;9.502;2023-04-03T06:18:31;103402.16;;;0.02;73.04
78623;BME280;67943;54.412;9.502;2023-04-03T06:23:34;103410.84;;;0.30;73.45
78623;BME280;67943;54.412;9.502;2023-04-03T06:28:36;103410.59;;;0.53;73.29
78623;BME280;67943;54.412;9.502;2023-04-03T06:33:37;103409.38;;;0.76;72.92
78623;BME280;67943;54.412;9.502;2023-04-03T06:38:40;103407.09;;;1.10;73.58
78623;BME280;67943;54.412;9.502;2023-04-03T06:43:41;103405.81;;;1.33;73.37
78623;BME280;67943;54.412;9.502;2023-04-03T06:48:44;103407.75;;;1.52;73.15
78623;BME280;67943;54.412;9.502;2023-04-03T06:53:47;103408.84;;;1.86;72.72
78623;BME280;67943;54.412;9.502;2023-04-03T06:58:49;103408.41;;;2.10;72.74
78623;BME280;67943;54.412;9.502;2023-04-03T07:03:51;103412.91;;;2.45;72.23
78623;BME280;67943;54.412;9.502;2023-04-03T07:08:55;103402.56;;;2.62;72.27
78623;BME280;67943;54.412;9.502;2023-04-03T07:13:56;103422.28;;;2.91;72.00
78623;BME280;67943;54.412;9.502;2023-04-03T07:18:58;103413.16;;;3.16;71.75
78623;BME280;67943;54.412;9.502;2023-04-03T07:24:01;103416.69;;;3.34;71.38
78623;BME280;67943;54.412;9.502;2023-04-03T07:29:02;103420.56;;;3.60;70.95
78623;BME280;67943;54.412;9.502;2023-04-03T07:34:04;103411.16;;;3.81;70.82
78623;BME280;67943;54.412;9.502;2023-04-03T07:39:07;103415.16;;;4.10;70.01
78623;BME280;67943;54.412;9.502;2023-04-03T07:44:08;103411.41;;;4.23;70.60
78623;BME280;67943;54.412;9.502;2023-04-03T07:49:11;103400.44;;;4.49;68.80
78623;BME280;67943;54.412;9.502;2023-04-03T07:54:13;103411.81;;;4.70;69.14
78623;BME280;67943;54.412;9.502;2023-04-03T07:59:15;103404.50;;;5.02;68.85
78623;BME280;67943;54.412;9.502;2023-04-03T08:04:16;103411.03;;;5.32;68.14
78623;BME280;67943;54.412;9.502;2023-04-03T08:09:19;103409.44;;;5.79;65.86
78623;BME280;67943;54.412;9.502;2023-04-03T08:14:20;103398.69;;;5.92;66.68
78623;BME280;67943;54.412;9.502;2023-04-03T08:19:22;103408.47;;;6.20;66.33
78623;BME280;67943;54.412;9.502;2023-04-03T08:24:25;103410.97;;;6.63;65.54
78623;BME280;67943;54.412;9.502;2023-04-03T08:29:27;103405.44;;;6.80;62.23
78623;BME280;67943;54.412;9.502;2023-04-03T08:34:28;103403.22;;;7.16;62.05
78623;BME280;67943;54.412;9.502;2023-04-03T08:39:31;103411.56;;;7.31;60.64
78623;BME280;67943;54.412;9.502;2023-04-03T08:44:38;103409.22;;;7.38;59.97
78623;BME280;67943;54.412;9.502;2023-04-03T08:49:43;103401.09;;;7.58;58.79
78623;BME280;67943;54.412;9.502;2023-04-03T08:54:51;103396.72;;;7.57;58.55
78623;BME280;67943;54.412;9.502;2023-04-03T08:59:53;103396.84;;;7.88;57.79
78623;BME280;67943;54.412;9.502;2023-04-03T09:04:55;103396.16;;;8.52;55.94
78623;BME280;67943;54.412;9.502;2023-04-03T09:09:59;103394.84;;;9.34;53.15
78623;BME280;67943;54.412;9.502;2023-04-03T09:15:09;103399.44;;;9.42;52.84
78623;BME280;67943;54.412;9.502;2023-04-03T09:20:19;103399.94;;;10.01;53.88
78623;BME280;67943;54.412;9.502;2023-04-03T09:25:26;103397.75;;;11.63;50.45
78623;BME280;67943;54.412;9.502;2023-04-03T09:30:29;103386.25;;;12.92;45.77
78623;BME280;67943;54.412;9.502;2023-04-03T09:35:32;103399.63;;;14.32;43.28
78623;BME280;67943;54.412;9.502;2023-04-03T09:40:37;103392.78;;;15.71;39.29
78623;BME280;67943;54.412;9.502;2023-04-03T09:45:39;103379.91;;;16.88;36.62
78623;BME280;67943;54.412;9.502;2023-04-03T09:50:56;103376.16;;;18.07;35.46
78623;BME280;67943;54.412;9.502;2023-04-03T09:56:02;103369.03;;;18.09;33.93
78623;BME280;67943;54.412;9.502;2023-04-03T10:01:04;103364.91;;;16.78;34.98
78623;BME280;67943;54.412;9.502;2023-04-03T10:06:21;103360.84;;;14.49;36.55
78623;BME280;67943;54.412;9.502;2023-04-03T10:11:25;103345.19;;;13.32;39.06
78623;BME280;67943;54.412;9.502;2023-04-03T10:16:32;103345.25;;;12.47;40.07
78623;BME280;67943;54.412;9.502;2023-04-03T10:21:41;103336.28;;;12.30;40.92
78623;BME280;67943;54.412;9.502;2023-04-03T10:26:52;103339.56;;;12.93;41.10
78623;BME280;67943;54.412;9.502;2023-04-03T10:32:03;103326.03;;;16.56;33.92
78623;BME280;67943;54.412;9.502;2023-04-03T10:37:13;103321.88;;;18.77;30.81
78623;BME280;67943;54.412;9.502;2023-04-03T10:42:27;103329.31;;;17.01;32.13
78623;BME280;67943;54.412;9.502;2023-04-03T10:47:36;103329.09;;;14.64;35.82
78623;BME280;67943;54.412;9.502;2023-04-03T10:52:47;103324.03;;;13.26;39.34
78623;BME280;67943;54.412;9.502;2023-04-03T10:57:52;103308.25;;;13.43;38.97
78623;BME280;67943;54.412;9.502;2023-04-03T11:02:57;103313.88;;;14.05;37.26
78623;BME280;67943;54.412;9.502;2023-04-03T11:08:04;103311.25;;;16.09;34.88
78623;BME280;67943;54.412;9.502;2023-04-03T11:13:13;103298.66;;;20.63;27.19
78623;BME280;67943;54.412;9.502;2023-04-03T11:18:19;103286.66;;;23.69;23.50
78623;BME280;67943;54.412;9.502;2023-04-03T11:23:25;103294.50;;;25.29;22.02
78623;BME280;67943;54.412;9.502;2023-04-03T11:28:28;103300.13;;;21.76;24.51
78623;BME280;67943;54.412;9.502;2023-04-03T11:33:42;103292.94;;;17.88;28.92
78623;BME280;67943;54.412;9.502;2023-04-03T11:38:49;103291.09;;;17.92;29.45
78623;BME280;67943;54.412;9.502;2023-04-03T11:43:59;103279.50;;;17.96;28.63
78623;BME280;67943;54.412;9.502;2023-04-03T11:49:01;103279.47;;;17.16;28.82
78623;BME280;67943;54.412;9.502;2023-04-03T11:54:43;103276.91;;;15.45;30.61
78623;BME280;67943;54.412;9.502;2023-04-03T11:59:47;103275.22;;;14.90;32.19
78623;BME280;67943;54.412;9.502;2023-04-03T12:10:23;103272.38;;;24.13;22.28
78623;BME280;67943;54.412;9.502;2023-04-03T12:15:47;103256.88;;;23.97;20.92
78623;BME280;67943;54.412;9.502;2023-04-03T12:20:55;103271.16;;;21.60;23.51
78623;BME280;67943;54.412;9.502;2023-04-03T12:26:06;103256.75;;;19.38;25.18
78623;BME280;67943;54.412;9.502;2023-04-03T12:31:25;103248.97;;;16.50;28.49
78623;BME280;67943;54.412;9.502;2023-04-03T12:36:42;103261.06;;;15.03;30.60
78623;BME280;67943;54.412;9.502;2023-04-03T12:41:53;103262.28;;;19.29;25.96
78623;BME280;67943;54.412;9.502;2023-04-03T12:47:16;103263.72;;;22.28;22.27
78623;BME280;67943;54.412;9.502;2023-04-03T12:52:30;103265.59;;;25.12;18.99
78623;BME280;67943;54.412;9.502;2023-04-03T12:57:33;103260.88;;;26.52;17.57
78623;BME280;67943;54.412;9.502;2023-04-03T13:02:36;103250.72;;;26.74;17.05
78623;BME280;67943;54.412;9.502;2023-04-03T13:07:38;103251.19;;;25.73;17.46
78623;BME280;67943;54.412;9.502;2023-04-03T13:12:47;103255.78;;;25.11;18.00
78623;BME280;67943;54.412;9.502;2023-04-03T13:17:51;103256.06;;;22.44;19.64
78623;BME280;67943;54.412;9.502;2023-04-03T13:22:57;103252.41;;;19.34;21.39
78623;BME280;67943;54.412;9.502;2023-04-03T13:28:00;103251.38;;;16.86;24.43
78623;BME280;67943;54.412;9.502;2023-04-03T13:33:17;103241.50;;;15.62;26.45
78623;BME280;67943;54.412;9.502;2023-04-03T13:38:25;103246.91;;;14.40;27.42
78623;BME280;67943;54.412;9.502;2023-04-03T13:43:28;103255.44;;;13.60;29.27
78623;BME280;67943;54.412;9.502;2023-04-03T13:48:36;103250.00;;;13.26;30.03
78623;BME280;67943;54.412;9.502;2023-04-03T13:53:43;103246.13;;;12.84;29.82
78623;BME280;67943;54.412;9.502;2023-04-03T13:58:54;103238.81;;;12.55;31.76
78623;BME280;67943;54.412;9.502;2023-04-03T14:03:59;103231.66;;;12.40;31.51
78623;BME280;67943;54.412;9.502;2023-04-03T14:09:01;103233.31;;;12.30;31.12
78623;BME280;67943;54.412;9.502;2023-04-03T14:14:09;103231.38;;;12.17;32.89
78623;BME280;67943;54.412;9.502;2023-04-03T14:19:18;103225.25;;;12.18;32.52
78623;BME280;67943;54.412;9.502;2023-04-03T14:24:21;103234.81;;;12.05;33.25
78623;BME280;67943;54.412;9.502;2023-04-03T14:29:23;103238.31;;;12.06;33.46
78623;BME280;67943;54.412;9.502;2023-04-03T14:34:26;103222.66;;;12.23;32.33
78623;BME280;67943;54.412;9.502;2023-04-03T14:39:27;103230.00;;;11.74;34.08
78623;BME280;67943;54.412;9.502;2023-04-03T14:44:30;103222.00;;;11.68;33.43
78623;BME280;67943;54.412;9.502;2023-04-03T14:49:33;103218.28;;;11.50;34.10
78623;BME280;67943;54.412;9.502;2023-04-03T14:54:34;103212.81;;;11.38;34.66
78623;BME280;67943;54.412;9.502;2023-04-03T14:59:36;103206.56;;;11.32;35.21
78623;BME280;67943;54.412;9.502;2023-04-03T15:04:40;103214.47;;;11.32;35.73
78623;BME280;67943;54.412;9.502;2023-04-03T15:09:41;103199.28;;;11.12;34.38
78623;BME280;67943;54.412;9.502;2023-04-03T15:14:43;103196.41;;;10.96;35.52
78623;BME280;67943;54.412;9.502;2023-04-03T15:19:46;103199.91;;;10.95;35.51
78623;BME280;67943;54.412;9.502;2023-04-03T15:24:47;103182.19;;;10.85;35.66
78623;BME280;67943;54.412;9.502;2023-04-03T15:29:49;103187.38;;;10.80;33.68
78623;BME280;67943;54.412;9.502;2023-04-03T15:34:53;103188.06;;;10.68;34.24
78623;BME280;67943;54.412;9.502;2023-04-03T15:39:54;103189.69;;;10.59;34.52
78623;BME280;67943;54.412;9.502;2023-04-03T15:44:56;103193.34;;;10.67;33.61
78623;BME280;67943;54.412;9.502;2023-04-03T15:49:59;103196.44;;;10.44;34.03
78623;BME280;67943;54.412;9.502;2023-04-03T15:55:00;103189.47;;;10.46;33.03
78623;BME280;67943;54.412;9.502;2023-04-03T16:00:03;103187.69;;;10.45;33.76
78623;BME280;67943;54.412;9.502;2023-04-03T16:05:07;103190.19;;;10.36;33.76
78623;BME280;67943;54.412;9.502;2023-04-03T16:10:10;103191.63;;;10.21;33.73
78623;BME280;67943;54.412;9.502;2023-04-03T16:15:12;103190.09;;;9.87;34.66
78623;BME280;67943;54.412;9.502;2023-04-03T16:20:15;103187.41;;;9.85;35.37
78623;BME280;67943;54.412;9.502;2023-04-03T16:25:17;103178.34;;;9.69;35.60
78623;BME280;67943;54.412;9.502;2023-04-03T16:30:19;103196.94;;;9.36;36.30
78623;BME280;67943;54.412;9.502;2023-04-03T16:35:22;103191.41;;;9.24;36.97
78623;BME280;67943;54.412;9.502;2023-04-03T16:40:23;103189.94;;;8.98;37.36
78623;BME280;67943;54.412;9.502;2023-04-03T16:45:25;103187.03;;;8.86;38.05
78623;BME280;67943;54.412;9.502;2023-04-03T16:50:28;103179.66;;;8.71;38.22
78623;BME280;67943;54.412;9.502;2023-04-03T16:55:29;103180.16;;;8.55;38.32
78623;BME280;67943;54.412;9.502;2023-04-03T17:00:32;103180.59;;;8.38;39.10
78623;BME280;67943;54.412;9.502;2023-04-03T17:05:35;103174.81;;;8.19;39.21
78623;BME280;67943;54.412;9.502;2023-04-03T17:10:37;103179.59;;;8.00;38.93
78623;BME280;67943;54.412;9.502;2023-04-03T17:15:39;103188.47;;;7.74;39.51
78623;BME280;67943;54.412;9.502;2023-04-03T17:20:42;103182.13;;;7.66;39.97
78623;BME280;67943;54.412;9.502;2023-04-03T17:25:44;103190.47;;;7.53;40.32
78623;BME280;67943;54.412;9.502;2023-04-03T17:30:45;103191.94;;;7.43;40.73
78623;BME280;67943;54.412;9.502;2023-04-03T17:35:48;103198.72;;;7.36;40.75
78623;BME280;67943;54.412;9.502;2023-04-03T17:40:49;103197.41;;;7.22;41.27
78623;BME280;67943;54.412;9.502;2023-04-03T17:45:51;103194.53;;;7.13;41.27
78623;BME280;67943;54.412;9.502;2023-04-03T17:50:53;103187.22;;;7.03;41.74
78623;BME280;67943;54.412;9.502;2023-04-03T17:55:55;103194.75;;;6.92;42.19
78623;BME280;67943;54.412;9.502;2023-04-03T18:00:56;103197.81;;;6.79;42.58
78623;BME280;67943;54.412;9.502;2023-04-03T18:06:01;103201.91;;;6.71;42.93
78623;BME280;67943;54.412;9.502;2023-04-03T18:11:03;103204.19;;;6.60;43.13
78623;BME280;67943;54.412;9.502;2023-04-03T18:16:06;103196.81;;;6.49;43.40
78623;BME280;67943;54.412;9.502;2023-04-03T18:21:11;103198.22;;;6.39;43.75
78623;BME280;67943;54.412;9.502;2023-04-03T18:26:14;103200.31;;;6.24;44.70
78623;BME280;67943;54.412;9.502;2023-04-03T18:31:17;103198.09;;;6.10;45.26
78623;BME280;67943;54.412;9.502;2023-04-03T18:36:20;103194.47;;;5.83;45.87
78623;BME280;67943;54.412;9.502;2023-04-03T18:41:23;103194.53;;;5.61;47.04
78623;BME280;67943;54.412;9.502;2023-04-03T18:46:27;103192.84;;;5.39;47.37
78623;BME280;67943;54.412;9.502;2023-04-03T18:51:30;103193.50;;;5.11;47.74
78623;BME280;67943;54.412;9.502;2023-04-03T18:56:32;103196.69;;;4.82;48.69
78623;BME280;67943;54.412;9.502;2023-04-03T19:01:33;103181.28;;;4.67;49.48
78623;BME280;67943;54.412;9.502;2023-04-03T19:06:38;103184.38;;;4.57;50.54
78623;BME280;67943;54.412;9.502;2023-04-03T19:11:39;103183.22;;;4.50;51.75
78623;BME280;67943;54.412;9.502;2023-04-03T19:16:41;103175.91;;;4.41;51.52
78623;BME280;67943;54.412;9.502;2023-04-03T19:21:44;103173.69;;;4.30;51.94
78623;BME280;67943;54.412;9.502;2023-04-03T19:26:45;103167.88;;;4.16;52.09
78623;BME280;67943;54.412;9.502;2023-04-03T19:31:47;103163.88;;;4.03;52.91
78623;BME280;67943;54.412;9.502;2023-04-03T19:36:50;103160.88;;;3.94;53.21
78623;BME280;67943;54.412;9.502;2023-04-03T19:41:52;103165.84;;;3.69;53.06
78623;BME280;67943;54.412;9.502;2023-04-03T19:46:54;103157.13;;;3.49;53.83
78623;BME280;67943;54.412;9.502;2023-04-03T19:51:56;103155.69;;;3.36;54.04
78623;BME280;67943;54.412;9.502;2023-04-03T19:56:58;103161.00;;;3.20;54.68
78623;BME280;67943;54.412;9.502;2023-04-03T20:01:59;103159.78;;;3.12;55.61
78623;BME280;67943;54.412;9.502;2023-04-03T20:07:02;103151.81;;;3.09;55.95
78623;BME280;67943;54.412;9.502;2023-04-03T20:12:04;103148.78;;;3.00;55.65
78623;BME280;67943;54.412;9.502;2023-04-03T20:17:08;103148.63;;;2.97;56.57
78623;BME280;67943;54.412;9.502;2023-04-03T20:22:11;103158.56;;;2.86;55.97
78623;BME280;67943;54.412;9.502;2023-04-03T20:27:13;103151.56;;;2.67;56.38
78623;BME280;67943;54.412;9.502;2023-04-03T20:32:15;103153.59;;;2.55;56.84
78623;BME280;67943;54.412;9.502;2023-04-03T20:37:18;103156.84;;;2.51;57.99
78623;BME280;67943;54.412;9.502;2023-04-03T20:42:22;103147.25;;;2.50;57.92
78623;BME280;67943;54.412;9.502;2023-04-03T20:47:23;103152.50;;;2.34;57.60
78623;BME280;67943;54.412;9.502;2023-04-03T20:52:26;103154.19;;;2.16;57.62
78623;BME280;67943;54.412;9.502;2023-04-03T20:57:28;103149.50;;;2.09;58.52
78623;BME280;67943;54.412;9.502;2023-04-03T21:02:30;103146.59;;;2.02;58.46
78623;BME280;67943;54.412;9.502;2023-04-03T21:24:04;103127.69;;;2.05;59.66
78623;BME280;67943;54.412;9.502;2023-04-03T21:29:06;103133.31;;;1.96;58.98
78623;BME280;67943;54.412;9.502;2023-04-03T21:34:09;103140.56;;;1.86;59.74
78623;BME280;67943;54.412;9.502;2023-04-03T21:39:11;103136.91;;;1.82;59.99
78623;BME280;67943;54.412;9.502;2023-04-03T21:44:12;103133.53;;;1.67;59.68
78623;BME280;67943;54.412;9.502;2023-04-03T21:49:15;103137.81;;;1.50;60.30
78623;BME280;67943;54.412;9.502;2023-04-03T21:54:17;103136.13;;;1.51;60.58
78623;BME280;67943;54.412;9.502;2023-04-03T21:59:19;103142.28;;;1.37;60.21
78623;BME280;67943;54.412;9.502;2023-04-03T22:04:22;103145.84;;;1.22;60.25
78623;BME280;67943;54.412;9.502;2023-04-03T22:09:23;103132.94;;;1.08;60.43
78623;BME280;67943;54.412;9.502;2023-04-03T22:14:25;103147.78;;;1.10;62.40
78623;BME280;67943;54.412;9.502;2023-04-03T22:19:28;103138.22;;;1.25;62.62
78623;BME280;67943;54.412;9.502;2023-04-03T22:24:29;103152.19;;;1.44;62.31
78623;BME280;67943;54.412;9.502;2023-04-03T22:29:31;103156.53;;;1.45;60.82
78623;BME280;67943;54.412;9.502;2023-04-03T22:34:34;103149.28;;;1.38;61.70
78623;BME280;67943;54.412;9.502;2023-04-03T22:39:37;103155.69;;;1.44;61.10
78623;BME280;67943;54.412;9.502;2023-04-03T22:44:38;103154.03;;;1.46;60.40
78623;BME280;67943;54.412;9.502;2023-04-03T22:49:41;103156.81;;;1.33;59.84
78623;BME280;67943;54.412;9.502;2023-04-03T22:54:42;103161.81;;;1.14;59.93
78623;BME280;67943;54.412;9.502;2023-04-03T22:59:44;103158.91;;;0.93;60.16
78623;BME280;67943;54.412;9.502;2023-04-03T23:04:47;103158.25;;;0.81;60.29
78623;BME280;67943;54.412;9.502;2023-04-03T23:09:48;103159.97;;;0.65;60.67
78623;BME280;67943;54.412;9.502;2023-04-03T23:14:49;103161.06;;;0.54;62.08
78623;BME280;67943;54.412;9.502;2023-04-03T23:19:52;103156.88;;;0.56;61.80
78623;BME280;67943;54.412;9.502;2023-04-03T23:24:54;103149.72;;;0.52;61.23
78623;BME280;67943;54.412;9.502;2023-04-03T23:29:55;103144.38;;;0.49;62.18
78623;BME280;67943;54.412;9.502;2023-04-03T23:34:58;103147.59;;;0.45;62.01
78623;BME280;67943;54.412;9.502;2023-04-03T23:39:59;103140.00;;;0.33;61.90
78623;BME280;67943;54.412;9.502;2023-04-03T23:45:01;103139.59;;;0.26;62.71
78623;BME280;67943;54.412;9.502;2023-04-03T23:50:05;103125.66;;;0.24;62.72
78623;BME280;67943;54.412;9.502;2023-04-03T23:55:07;103124.41;;;0.17;62.48
